Glenrock, Wyoming
Current Conditions -  °F | °C
As of 12:53 AM on Sunday 26 Oct 2014 (Local Time) from KDGW Reporting Station
Clear Clear  
Wind Chill:   Ceiling: Unl
Heat Index:   Visibility: 10mi
Dew Point: -3°   Wind: 3mph
Humidity: 46%   Direction: NA
Pressure: 29.87"   Gusts: NA
Location:  42.86°N, 105.87°W
Report Text: KDGW 260653Z AUTO VRB03KT 10SM CLR 08/M03 A2987 RMK AO2 SLP071 T00781033 402721011
Loading
Personal Weather Stations






























Interactive Weather Map
Tropical Storm Tracking
New forecast layout! Learn more

10-Day Weather Forecast

Advertisements
Track Severe Weather on mobile